Time,TemperatureF,DewpointF,PressureIn,WindDirection,WindDirectionDegrees,WindSpeedMPH,WindSpeedGustMPH,Humidity,HourlyPrecipIn,Conditions,Clouds,dailyrainin,SoftwareType,DateUTC
2013-02-13 00:00:00,40.6,35.6,29.66,North,0,0.0,0.0,82,0.07,RA,,0.00,WeatherDisplay:10.37,2013-02-13 05:00:00,
2013-02-13 00:05:00,40.3,35.2,29.66,North,0,0.0,3.5,82,0.09,RA,,0.02,WeatherDisplay:10.37,2013-02-13 05:05:00,
2013-02-13 00:08:00,40.1,35.0,29.65,North,0,0.0,0.0,82,0.11,RA,,0.04,WeatherDisplay:10.37,2013-02-13 05:08:00,
2013-02-13 00:13:00,39.9,34.9,29.64,North,0,0.0,0.0,82,0.00,RA,,0.09,WeatherDisplay:10.37,2013-02-13 05:13:00,
2013-02-13 00:18:00,39.6,34.8,29.64,North,0,0.0,0.0,83,0.02,RA,,0.14,WeatherDisplay:10.37,2013-02-13 05:18:00,
2013-02-13 00:23:00,39.0,34.6,29.64,North,0,0.0,0.0,84,0.05,RA,,0.18,WeatherDisplay:10.37,2013-02-13 05:23:00,
2013-02-13 00:28:00,39.0,34.6,29.63,North,0,0.0,0.0,84,0.09,RA,,0.20,WeatherDisplay:10.37,2013-02-13 05:28:00,
2013-02-13 00:33:00,38.8,34.4,29.62,North,0,0.0,0.0,84,0.07,RA,,0.20,WeatherDisplay:10.37,2013-02-13 05:33:00,
2013-02-13 00:38:00,38.8,34.4,29.63,North,0,0.0,0.0,84,0.07,CLR,,0.20,WeatherDisplay:10.37,2013-02-13 05:38:00,
2013-02-13 00:43:00,39.0,34.9,29.64,WNW,292,3.4,5.8,85,0.05,CLR,,0.20,WeatherDisplay:10.37,2013-02-13 05:43:00,
2013-02-13 00:48:00,39.0,34.6,29.64,SW,225,0.8,2.7,84,0.05,CLR,,0.20,WeatherDisplay:10.37,2013-02-13 05:48:00,
2013-02-13 00:53:00,39.4,34.9,29.62,NNW,338,2.7,3.5,84,0.07,RA,,0.22,WeatherDisplay:10.37,2013-02-13 05:53:00,
2013-02-13 00:58:00,39.4,34.9,29.62,NNW,338,0.0,0.0,84,0.09,RA,,0.25,WeatherDisplay:10.37,2013-02-13 05:58:00,
2013-02-13 01:03:00,39.4,34.9,29.61,East,90,0.0,0.0,84,0.25,RA,,0.25,WeatherDisplay:10.37,2013-02-13 06:03:00,
2013-02-13 01:08:00,39.4,34.9,29.61,East,90,0.0,0.0,84,0.20,CLR,,0.25,WeatherDisplay:10.37,2013-02-13 06:08:00,
2013-02-13 01:13:00,39.4,34.9,29.62,East,90,0.0,0.0,84,0.16,CLR,,0.25,WeatherDisplay:10.37,2013-02-13 06:13:00,
2013-02-13 01:18:00,39.4,34.9,29.62,East,90,0.0,0.0,84,0.11,CLR,,0.25,WeatherDisplay:10.37,2013-02-13 06:18:00,
2013-02-13 01:23:00,39.6,35.1,29.60,East,90,0.0,0.0,84,0.09,CLR,,0.25,WeatherDisplay:10.37,2013-02-13 06:23:00,
2013-02-13 01:28:00,39.7,35.3,29.60,East,90,0.0,0.0,84,0.05,CLR,,0.25,WeatherDisplay:10.37,2013-02-13 06:28:00,
2013-02-13 01:33:00,39.7,35.6,29.59,East,90,0.0,0.0,85,0.05,CLR,,0.25,WeatherDisplay:10.37,2013-02-13 06:33:00,
2013-02-13 01:38:00,39.9,35.5,29.60,East,90,0.0,0.0,84,0.05,CLR,,0.25,WeatherDisplay:10.37,2013-02-13 06:38:00,
2013-02-13 01:43:00,39.9,35.8,29.60,East,90,0.0,0.0,85,0.05,CLR,,0.25,WeatherDisplay:10.37,2013-02-13 06:43:00,
2013-02-13 01:48:00,39.9,35.8,29.61,SE,135,0.0,0.0,85,0.05,CLR,,0.25,WeatherDisplay:10.37,2013-02-13 06:48:00,
2013-02-13 01:53:00,39.9,35.5,29.60,SE,135,0.0,0.0,84,0.02,CLR,,0.25,WeatherDisplay:10.37,2013-02-13 06:53:00,
2013-02-13 01:58:00,39.9,35.5,29.59,NW,315,0.0,0.0,84,0.00,CLR,,0.25,WeatherDisplay:10.37,2013-02-13 06:58:00,
2013-02-13 02:03:00,39.9,35.5,29.59,NW,315,0.0,0.0,84,0.00,CLR,,0.25,WeatherDisplay:10.37,2013-02-13 07:03:00,
2013-02-13 02:08:00,39.7,35.3,29.59,NW,315,0.0,0.0,84,0.00,CLR,,0.25,WeatherDisplay:10.37,2013-02-13 07:08:00,
2013-02-13 02:13:00,39.7,35.3,29.58,NW,315,0.0,0.0,84,0.00,CLR,,0.25,WeatherDisplay:10.37,2013-02-13 07:13:00,
2013-02-13 02:18:00,39.9,35.8,29.58,NW,315,0.0,0.0,85,0.00,CLR,,0.25,WeatherDisplay:10.37,2013-02-13 07:18:00,
2013-02-13 02:23:00,39.9,35.8,29.58,NW,315,0.0,0.0,85,0.00,CLR,,0.25,WeatherDisplay:10.37,2013-02-13 07:23:00,
2013-02-13 02:28:00,40.1,35.7,29.58,NW,315,0.0,0.0,84,0.00,CLR,,0.25,WeatherDisplay:10.37,2013-02-13 07:28:00,
2013-02-13 02:33:00,40.3,35.8,29.57,NW,315,0.0,0.0,84,0.00,CLR,,0.25,WeatherDisplay:10.37,2013-02-13 07:33:00,
2013-02-13 02:38:00,40.3,35.8,29.58,NW,315,0.0,0.0,84,0.00,CLR,,0.25,WeatherDisplay:10.37,2013-02-13 07:38:00,
2013-02-13 02:43:00,40.3,35.8,29.57,NW,315,0.0,0.0,84,0.00,CLR,,0.25,WeatherDisplay:10.37,2013-02-13 07:43:00,
2013-02-13 02:48:00,40.3,35.8,29.58,NW,315,0.0,0.0,84,0.00,CLR,,0.25,WeatherDisplay:10.37,2013-02-13 07:48:00,
2013-02-13 02:53:00,40.3,35.8,29.58,NW,315,0.0,0.0,84,0.00,CLR,,0.25,WeatherDisplay:10.37,2013-02-13 07:53:00,
2013-02-13 02:58:00,40.3,35.8,29.58,NW,315,0.0,0.0,84,0.00,CLR,,0.25,WeatherDisplay:10.37,2013-02-13 07:58:00,
2013-02-13 03:03:00,40.3,35.8,29.57,NW,315,0.0,0.0,84,0.00,CLR,,0.25,WeatherDisplay:10.37,2013-02-13 08:03:00,
2013-02-13 03:08:00,40.3,35.8,29.57,WNW,292,0.0,0.0,84,0.00,CLR,,0.25,WeatherDisplay:10.37,2013-02-13 08:08:00,
2013-02-13 03:13:00,40.3,35.8,29.57,WNW,292,0.0,0.0,84,0.00,CLR,,0.25,WeatherDisplay:10.37,2013-02-13 08:13:00,
2013-02-13 03:18:00,40.1,35.7,29.57,WNW,292,0.0,0.0,84,0.00,CLR,,0.25,WeatherDisplay:10.37,2013-02-13 08:18:00,
2013-02-13 03:23:00,39.9,35.5,29.57,NW,315,0.0,0.0,84,0.00,CLR,,0.25,WeatherDisplay:10.37,2013-02-13 08:23:00,
2013-02-13 03:28:00,39.9,35.5,29.56,NW,315,0.0,0.0,84,0.00,CLR,,0.25,WeatherDisplay:10.37,2013-02-13 08:28:00,
2013-02-13 03:36:00,39.9,35.5,29.56,North,0,0.0,0.0,84,0.00,CLR,,0.25,WeatherDisplay:10.37,2013-02-13 08:36:00,
2013-02-13 03:41:00,40.1,35.7,29.55,NW,315,0.0,0.0,84,0.00,RA,,0.25,WeatherDisplay:10.37,2013-02-13 08:41:00,
2013-02-13 03:46:00,40.1,35.7,29.55,NW,315,0.0,0.0,84,0.00,RA,,0.25,WeatherDisplay:10.37,2013-02-13 08:46:00,
2013-02-13 03:51:00,40.1,35.7,29.55,NW,315,0.0,0.0,84,0.00,CLR,,0.25,WeatherDisplay:10.37,2013-02-13 08:51:00,
2013-02-13 03:56:00,40.1,36.0,29.55,SSW,202,0.0,0.0,85,0.00,CLR,,0.25,WeatherDisplay:10.37,2013-02-13 08:56:00,
2013-02-13 04:01:00,40.1,36.0,29.54,North,0,0.0,0.4,85,0.00,CLR,,0.25,WeatherDisplay:10.37,2013-02-13 09:01:00,
2013-02-13 04:06:00,39.9,35.8,29.54,WSW,248,0.0,0.0,85,0.00,CLR,,0.25,WeatherDisplay:10.37,2013-02-13 09:06:00,
2013-02-13 04:11:00,39.9,35.8,29.54,WSW,248,0.0,0.0,85,0.00,CLR,,0.25,WeatherDisplay:10.37,2013-02-13 09:11:00,
2013-02-13 04:16:00,39.7,35.6,29.54,North,0,0.0,0.0,85,0.02,RA,,0.27,WeatherDisplay:10.37,2013-02-13 09:16:00,
2013-02-13 04:21:00,39.7,35.6,29.54,North,0,0.0,0.0,85,0.02,RA,,0.27,WeatherDisplay:10.37,2013-02-13 09:21:00,
2013-02-13 04:26:00,39.7,35.6,29.54,North,0,0.0,0.0,85,0.02,CLR,,0.27,WeatherDisplay:10.37,2013-02-13 09:26:00,
2013-02-13 04:31:00,39.7,35.6,29.53,North,0,0.0,0.0,85,0.02,CLR,,0.27,WeatherDisplay:10.37,2013-02-13 09:31:00,
2013-02-13 04:36:00,39.7,35.6,29.53,North,0,0.0,0.0,85,0.02,CLR,,0.27,WeatherDisplay:10.37,2013-02-13 09:36:00,
2013-02-13 04:41:00,39.7,35.6,29.53,North,0,0.0,0.0,85,0.02,CLR,,0.27,WeatherDisplay:10.37,2013-02-13 09:41:00,
2013-02-13 04:46:00,39.7,35.6,29.53,North,0,0.0,0.0,85,0.02,CLR,,0.27,WeatherDisplay:10.37,2013-02-13 09:46:00,
2013-02-13 04:51:00,39.7,35.6,29.54,ESE,112,0.0,0.0,85,0.02,CLR,,0.27,WeatherDisplay:10.37,2013-02-13 09:51:00,
2013-02-13 04:56:00,39.7,35.6,29.54,SE,135,0.0,0.0,85,0.02,CLR,,0.27,WeatherDisplay:10.37,2013-02-13 09:56:00,
2013-02-13 05:01:00,39.7,35.6,29.54,SE,135,0.0,0.0,85,0.02,CLR,,0.27,WeatherDisplay:10.37,2013-02-13 10:01:00,
2013-02-13 05:06:00,39.9,35.8,29.53,SE,135,0.0,0.0,85,0.02,CLR,,0.27,WeatherDisplay:10.37,2013-02-13 10:06:00,
2013-02-13 05:11:00,39.9,35.8,29.54,SE,135,0.0,0.0,85,0.02,CLR,,0.27,WeatherDisplay:10.37,2013-02-13 10:11:00,
2013-02-13 05:16:00,39.9,35.8,29.54,SE,135,0.0,0.0,85,0.00,CLR,,0.27,WeatherDisplay:10.37,2013-02-13 10:16:00,
2013-02-13 05:21:00,39.9,35.8,29.52,SE,135,0.0,0.0,85,0.00,CLR,,0.27,WeatherDisplay:10.37,2013-02-13 10:21:00,
2013-02-13 05:26:00,39.9,35.8,29.52,SE,135,0.0,0.0,85,0.00,CLR,,0.27,WeatherDisplay:10.37,2013-02-13 10:26:00,
2013-02-13 05:32:00,39.9,35.8,29.52,SE,135,0.0,0.0,85,0.00,CLR,,0.27,WeatherDisplay:10.37,2013-02-13 10:32:00,
2013-02-13 05:37:00,39.9,35.8,29.52,SE,135,0.0,0.0,85,0.00,CLR,,0.27,WeatherDisplay:10.37,2013-02-13 10:37:00,
2013-02-13 05:42:00,39.9,35.8,29.51,SE,135,0.0,0.0,85,0.00,CLR,,0.27,WeatherDisplay:10.37,2013-02-13 10:42:00,
2013-02-13 05:47:00,39.9,35.8,29.51,SE,135,0.0,0.0,85,0.00,CLR,,0.27,WeatherDisplay:10.37,2013-02-13 10:47:00,
2013-02-13 05:52:00,39.9,35.8,29.52,SE,135,0.0,0.0,85,0.00,CLR,,0.27,WeatherDisplay:10.37,2013-02-13 10:52:00,
2013-02-13 05:57:00,39.9,35.8,29.52,SE,135,0.0,0.0,85,0.00,CLR,,0.27,WeatherDisplay:10.37,2013-02-13 10:57:00,
2013-02-13 06:02:00,39.9,35.8,29.51,SE,135,0.0,0.0,85,0.00,CLR,,0.27,WeatherDisplay:10.37,2013-02-13 11:02:00,
2013-02-13 06:07:00,39.9,35.8,29.51,SSE,158,0.0,0.0,85,0.00,CLR,,0.27,WeatherDisplay:10.37,2013-02-13 11:07:00,
2013-02-13 06:12:00,39.9,35.8,29.51,SSE,158,0.0,0.0,85,0.00,CLR,,0.27,WeatherDisplay:10.37,2013-02-13 11:12:00,
2013-02-13 06:17:00,39.9,35.8,29.50,SSE,158,0.0,0.0,85,0.00,CLR,,0.27,WeatherDisplay:10.37,2013-02-13 11:17:00,
2013-02-13 06:22:00,39.9,35.8,29.50,SSE,158,0.0,0.0,85,0.00,CLR,,0.27,WeatherDisplay:10.37,2013-02-13 11:22:00,
2013-02-13 06:27:00,39.9,35.8,29.50,SSE,158,0.0,0.0,85,0.00,CLR,,0.27,WeatherDisplay:10.37,2013-02-13 11:27:00,
2013-02-13 06:32:00,39.9,35.8,29.51,SSE,158,0.0,0.0,85,0.00,CLR,,0.27,WeatherDisplay:10.37,2013-02-13 11:32:00,
2013-02-13 06:37:00,39.9,36.1,29.50,SSE,158,0.0,0.0,86,0.00,CLR,,0.27,WeatherDisplay:10.37,2013-02-13 11:37:00,
2013-02-13 06:42:00,39.7,35.9,29.50,SSE,158,0.0,0.0,86,0.00,CLR,,0.27,WeatherDisplay:10.37,2013-02-13 11:42:00,
2013-02-13 06:47:00,39.7,35.9,29.51,SSE,158,0.0,0.0,86,0.00,CLR,,0.27,WeatherDisplay:10.37,2013-02-13 11:47:00,
2013-02-13 06:52:00,39.7,35.9,29.50,SSE,158,0.0,0.0,86,0.00,CLR,,0.27,WeatherDisplay:10.37,2013-02-13 11:52:00,
2013-02-13 06:57:00,39.7,35.9,29.51,SSE,158,0.0,0.0,86,0.00,CLR,,0.27,WeatherDisplay:10.37,2013-02-13 11:57:00,
2013-02-13 07:02:00,39.7,35.9,29.51,SSE,158,0.0,0.0,86,0.00,CLR,,0.27,WeatherDisplay:10.37,2013-02-13 12:02:00,
2013-02-13 07:07:00,39.7,35.9,29.51,SSE,158,0.0,0.0,86,0.00,CLR,,0.27,WeatherDisplay:10.37,2013-02-13 12:07:00,
2013-02-13 07:12:00,39.7,35.9,29.51,SSE,158,0.0,0.0,86,0.00,CLR,,0.27,WeatherDisplay:10.37,2013-02-13 12:12:00,
2013-02-13 07:17:00,39.7,35.9,29.50,SSE,158,0.0,0.0,86,0.00,CLR,,0.27,WeatherDisplay:10.37,2013-02-13 12:17:00,
2013-02-13 07:22:00,39.7,35.9,29.52,South,180,0.0,0.0,86,0.00,CLR,,0.27,WeatherDisplay:10.37,2013-02-13 12:22:00,
2013-02-13 07:27:00,39.7,35.9,29.52,South,180,0.0,0.0,86,0.00,CLR,,0.27,WeatherDisplay:10.37,2013-02-13 12:27:00,
2013-02-13 07:32:00,39.6,35.7,29.53,South,180,0.0,0.0,86,0.00,CLR,,0.27,WeatherDisplay:10.37,2013-02-13 12:32:00,
2013-02-13 07:37:00,39.7,35.9,29.52,SSE,158,0.0,0.0,86,0.00,CLR,,0.27,WeatherDisplay:10.37,2013-02-13 12:37:00,
2013-02-13 07:42:00,39.7,35.9,29.51,SSE,158,0.0,0.0,86,0.00,CLR,,0.27,WeatherDisplay:10.37,2013-02-13 12:42:00,
2013-02-13 07:47:00,39.9,36.4,29.53,SSW,202,0.0,0.0,87,0.00,CLR,,0.27,WeatherDisplay:10.37,2013-02-13 12:47:00,
2013-02-13 07:52:00,39.9,36.4,29.53,SSW,202,0.0,0.0,87,0.00,CLR,,0.27,WeatherDisplay:10.37,2013-02-13 12:52:00,
2013-02-13 07:57:00,39.9,36.4,29.51,SSW,202,0.0,0.0,87,0.00,CLR,,0.27,WeatherDisplay:10.37,2013-02-13 12:57:00,
2013-02-13 08:02:00,39.9,36.1,29.50,SSW,202,0.0,0.0,86,0.00,CLR,,0.27,WeatherDisplay:10.37,2013-02-13 13:02:00,
2013-02-13 08:07:00,39.9,36.4,29.49,South,180,0.0,0.0,87,0.00,CLR,,0.27,WeatherDisplay:10.37,2013-02-13 13:07:00,
2013-02-13 08:12:00,39.9,36.4,29.51,South,180,0.0,0.0,87,0.00,CLR,,0.27,WeatherDisplay:10.37,2013-02-13 13:12:00,
2013-02-13 08:17:00,39.7,35.9,29.50,South,180,0.0,0.0,86,0.00,CLR,,0.27,WeatherDisplay:10.37,2013-02-13 13:17:00,
2013-02-13 08:22:00,39.9,36.4,29.50,WSW,248,0.0,0.0,87,0.00,CLR,,0.27,WeatherDisplay:10.37,2013-02-13 13:22:00,
2013-02-13 08:27:00,39.9,36.4,29.51,SW,225,0.0,0.0,87,0.00,CLR,,0.27,WeatherDisplay:10.37,2013-02-13 13:27:00,
2013-02-13 08:32:00,39.9,36.4,29.50,SW,225,0.0,0.0,87,0.00,CLR,,0.27,WeatherDisplay:10.37,2013-02-13 13:32:00,
2013-02-13 08:37:00,39.9,36.4,29.49,SW,225,0.0,0.0,87,0.00,CLR,,0.27,WeatherDisplay:10.37,2013-02-13 13:37:00,
2013-02-13 08:42:00,40.1,36.5,29.52,SW,226,0.0,0.0,87,0.00,CLR,,0.27,WeatherDisplay:10.37,2013-02-13 13:42:00,
2013-02-13 08:47:00,40.1,36.5,29.52,WSW,248,0.0,0.0,87,0.00,CLR,,0.27,WeatherDisplay:10.37,2013-02-13 13:47:00,
2013-02-13 08:52:00,39.9,36.4,29.51,WSW,248,0.0,0.0,87,0.00,CLR,,0.27,WeatherDisplay:10.37,2013-02-13 13:52:00,
2013-02-13 08:57:00,39.9,36.4,29.51,SSW,202,0.0,0.0,87,0.00,CLR,,0.27,WeatherDisplay:10.37,2013-02-13 13:57:00,
2013-02-13 09:02:00,40.1,36.5,29.51,SSE,158,0.0,0.0,87,0.00,CLR,,0.27,WeatherDisplay:10.37,2013-02-13 14:02:00,
2013-02-13 09:07:00,40.1,36.5,29.51,SSE,158,0.0,0.0,87,0.00,CLR,,0.27,WeatherDisplay:10.37,2013-02-13 14:07:00,
2013-02-13 09:12:00,40.3,36.7,29.51,SSE,158,0.0,0.0,87,0.02,RA,,0.29,WeatherDisplay:10.37,2013-02-13 14:12:00,
2013-02-13 09:17:00,40.3,36.7,29.51,SSE,158,0.0,0.0,87,0.02,RA,,0.29,WeatherDisplay:10.37,2013-02-13 14:17:00,
2013-02-13 09:22:00,40.3,36.7,29.51,SSE,158,0.0,0.0,87,0.02,CLR,,0.29,WeatherDisplay:10.37,2013-02-13 14:22:00,
2013-02-13 09:27:00,40.3,36.7,29.51,SSE,158,0.0,0.0,87,0.02,,,0.29,WeatherDisplay:10.37,2013-02-13 14:27:00,
2013-02-13 09:32:00,40.3,36.7,29.51,SSE,158,0.0,0.0,87,0.02,,,0.29,WeatherDisplay:10.37,2013-02-13 14:32:00,
2013-02-13 09:37:00,40.5,36.9,29.51,South,180,0.0,0.0,87,0.02,,,0.29,WeatherDisplay:10.37,2013-02-13 14:37:00,
2013-02-13 09:42:00,40.5,36.9,29.51,SE,135,0.0,0.0,87,0.02,,,0.29,WeatherDisplay:10.37,2013-02-13 14:42:00,
2013-02-13 09:47:00,40.5,36.9,29.51,SSE,158,0.0,0.0,87,0.02,,,0.29,WeatherDisplay:10.37,2013-02-13 14:47:00,
2013-02-13 09:52:00,40.5,36.9,29.49,SSE,158,0.0,0.0,87,0.02,,,0.29,WeatherDisplay:10.37,2013-02-13 14:52:00,
2013-02-13 09:57:00,40.6,37.1,29.50,SSE,158,0.0,0.0,87,0.02,,,0.29,WeatherDisplay:10.37,2013-02-13 14:57:00,
2013-02-13 10:02:00,40.6,37.1,29.49,SSE,158,0.0,0.0,87,0.02,,,0.29,WeatherDisplay:10.37,2013-02-13 15:02:00,
2013-02-13 10:07:00,40.8,37.3,29.49,SSE,158,0.0,0.0,87,0.02,,,0.29,WeatherDisplay:10.37,2013-02-13 15:07:00,
2013-02-13 10:12:00,40.8,37.3,29.50,SSE,158,0.0,0.0,87,0.00,,,0.29,WeatherDisplay:10.37,2013-02-13 15:12:00,
2013-02-13 10:17:00,40.8,37.3,29.49,SSE,158,0.0,0.0,87,0.00,,,0.29,WeatherDisplay:10.37,2013-02-13 15:17:00,
2013-02-13 10:22:00,41.0,37.4,29.48,SSE,158,0.0,0.0,87,0.00,,,0.29,WeatherDisplay:10.37,2013-02-13 15:22:00,
2013-02-13 10:27:00,41.0,37.4,29.48,SSE,158,0.0,0.0,87,0.00,,,0.29,WeatherDisplay:10.37,2013-02-13 15:27:00,
2013-02-13 10:32:00,41.2,37.6,29.49,SSE,158,0.0,0.0,87,0.00,,,0.29,WeatherDisplay:10.37,2013-02-13 15:32:00,
2013-02-13 10:37:00,41.2,37.6,29.48,ESE,112,0.0,0.0,87,0.00,,,0.29,WeatherDisplay:10.37,2013-02-13 15:37:00,
2013-02-13 10:42:00,41.2,37.6,29.48,ESE,112,0.0,0.0,87,0.00,,,0.29,WeatherDisplay:10.37,2013-02-13 15:42:00,
2013-02-13 10:47:00,41.4,37.8,29.48,SE,135,0.0,0.0,87,0.00,,,0.29,WeatherDisplay:10.37,2013-02-13 15:47:00,
2013-02-13 10:52:00,41.4,37.8,29.48,SSE,158,0.0,0.0,87,0.00,,,0.29,WeatherDisplay:10.37,2013-02-13 15:52:00,
2013-02-13 10:57:00,41.2,37.6,29.48,SSE,158,0.0,0.0,87,0.00,,,0.29,WeatherDisplay:10.37,2013-02-13 15:57:00,
2013-02-13 11:02:00,41.4,37.8,29.48,SSE,158,0.0,0.0,87,0.00,,,0.29,WeatherDisplay:10.37,2013-02-13 16:02:00,
2013-02-13 11:07:00,41.4,37.8,29.49,SSE,158,0.0,0.0,87,0.00,,,0.29,WeatherDisplay:10.37,2013-02-13 16:07:00,
2013-02-13 11:12:00,41.5,38.0,29.48,SSE,158,0.0,0.0,87,0.02,RA,,0.31,WeatherDisplay:10.37,2013-02-13 16:12:00,
2013-02-13 11:17:00,41.5,38.0,29.48,SSE,158,0.0,0.0,87,0.02,RA,,0.31,WeatherDisplay:10.37,2013-02-13 16:17:00,
2013-02-13 11:22:00,41.5,38.0,29.46,SSE,158,0.0,0.0,87,0.02,,,0.31,WeatherDisplay:10.37,2013-02-13 16:22:00,
2013-02-13 11:27:00,41.5,38.0,29.46,SSE,158,0.0,0.0,87,0.02,,,0.31,WeatherDisplay:10.37,2013-02-13 16:27:00,
2013-02-13 11:32:00,41.7,38.1,29.47,SSE,158,0.0,0.0,87,0.02,,,0.31,WeatherDisplay:10.37,2013-02-13 16:32:00,
2013-02-13 11:37:00,41.7,38.1,29.46,SSE,158,0.0,0.0,87,0.02,,,0.31,WeatherDisplay:10.37,2013-02-13 16:37:00,
2013-02-13 11:42:00,41.7,38.1,29.46,SSE,158,0.0,0.0,87,0.02,,,0.31,WeatherDisplay:10.37,2013-02-13 16:42:00,
2013-02-13 11:47:00,41.9,38.3,29.46,SSE,158,0.0,0.0,87,0.02,,,0.31,WeatherDisplay:10.37,2013-02-13 16:47:00,
2013-02-13 11:52:00,41.9,38.3,29.46,SSE,158,0.0,0.0,87,0.02,,,0.31,WeatherDisplay:10.37,2013-02-13 16:52:00,
2013-02-13 11:57:00,42.1,38.5,29.46,SSE,158,0.0,0.0,87,0.02,,,0.31,WeatherDisplay:10.37,2013-02-13 16:57:00,
2013-02-13 12:02:00,42.1,38.5,29.46,SSE,158,0.0,0.0,87,0.02,,,0.31,WeatherDisplay:10.37,2013-02-13 17:02:00,
2013-02-13 12:07:00,42.1,38.5,29.44,SSE,158,0.0,0.0,87,0.02,,,0.31,WeatherDisplay:10.37,2013-02-13 17:07:00,
2013-02-13 12:12:00,42.1,38.5,29.45,South,180,0.0,0.0,87,0.00,,,0.31,WeatherDisplay:10.37,2013-02-13 17:12:00,
2013-02-13 12:17:00,42.1,38.5,29.45,South,180,0.0,0.0,87,0.00,,,0.31,WeatherDisplay:10.37,2013-02-13 17:17:00,
2013-02-13 12:22:00,42.1,38.5,29.44,South,180,0.0,0.0,87,0.00,,,0.31,WeatherDisplay:10.37,2013-02-13 17:22:00,
2013-02-13 12:27:00,42.1,38.2,29.43,SE,135,0.0,0.0,86,0.00,,,0.31,WeatherDisplay:10.37,2013-02-13 17:27:00,
2013-02-13 12:32:00,42.1,38.5,29.43,SE,135,0.0,0.0,87,0.00,,,0.31,WeatherDisplay:10.37,2013-02-13 17:32:00,
2013-02-13 12:37:00,42.1,38.5,29.41,NE,45,0.0,0.0,87,0.00,,,0.31,WeatherDisplay:10.37,2013-02-13 17:37:00,
2013-02-13 12:42:00,42.1,38.5,29.41,SE,135,0.0,0.0,87,0.00,,,0.31,WeatherDisplay:10.37,2013-02-13 17:42:00,
2013-02-13 12:47:00,42.4,38.8,29.41,SSE,158,0.0,0.0,87,0.00,,,0.31,WeatherDisplay:10.37,2013-02-13 17:47:00,
2013-02-13 12:52:00,42.6,39.0,29.42,South,180,0.0,0.0,87,0.00,,,0.31,WeatherDisplay:10.37,2013-02-13 17:52:00,
2013-02-13 12:57:00,43.0,39.4,29.41,SW,225,0.4,1.1,87,0.00,,,0.31,WeatherDisplay:10.37,2013-02-13 17:57:00,
2013-02-13 13:02:00,43.2,39.6,29.42,WSW,248,1.8,5.8,87,0.00,,,0.31,WeatherDisplay:10.37,2013-02-13 18:02:00,
2013-02-13 13:07:00,43.3,40.0,29.41,SSE,158,0.0,0.0,88,0.00,,,0.31,WeatherDisplay:10.37,2013-02-13 18:07:00,
2013-02-13 13:12:00,43.5,40.2,29.40,SE,135,3.1,5.8,88,0.00,,,0.31,WeatherDisplay:10.37,2013-02-13 18:12:00,
2013-02-13 13:17:00,43.9,40.6,29.40,SE,135,2.7,5.8,88,0.00,,,0.31,WeatherDisplay:10.37,2013-02-13 18:17:00,
2013-02-13 13:22:00,44.2,40.9,29.40,SW,225,1.6,8.7,88,0.00,,,0.31,WeatherDisplay:10.37,2013-02-13 18:22:00,
2013-02-13 13:27:00,44.8,41.4,29.41,West,270,6.6,11.6,88,0.00,,,0.31,WeatherDisplay:10.37,2013-02-13 18:27:00,
2013-02-13 13:32:00,45.1,41.8,29.40,WSW,248,4.7,7.8,88,0.00,,,0.31,WeatherDisplay:10.37,2013-02-13 18:32:00,
2013-02-13 13:37:00,45.7,42.0,29.40,South,180,5.6,9.2,87,0.00,,,0.31,WeatherDisplay:10.37,2013-02-13 18:37:00,
2013-02-13 13:42:00,46.0,42.1,29.40,South,180,8.2,13.8,86,0.00,,,0.31,WeatherDisplay:10.37,2013-02-13 18:42:00,
2013-02-13 13:47:00,46.2,42.3,29.39,SW,225,9.2,16.1,86,0.00,,,0.31,WeatherDisplay:10.37,2013-02-13 18:47:00,
2013-02-13 13:52:00,46.6,42.3,29.39,SSE,158,3.8,9.2,85,0.00,,,0.31,WeatherDisplay:10.37,2013-02-13 18:52:00,
2013-02-13 13:57:00,46.9,42.7,29.40,ENE,68,7.8,9.2,85,0.00,,,0.31,WeatherDisplay:10.37,2013-02-13 18:57:00,
2013-02-13 14:02:00,47.1,42.5,29.40,WSW,248,4.5,10.4,84,0.00,,,0.31,WeatherDisplay:10.37,2013-02-13 19:02:00,
2013-02-13 14:07:00,47.1,42.5,29.40,SW,225,6.7,12.7,84,0.00,,,0.31,WeatherDisplay:10.37,2013-02-13 19:07:00,
2013-02-13 14:12:00,46.9,42.0,29.40,West,270,6.0,11.5,83,0.00,,,0.31,WeatherDisplay:10.37,2013-02-13 19:12:00,
2013-02-13 14:17:00,46.9,42.0,29.39,SW,225,6.3,8.1,83,0.00,,,0.31,WeatherDisplay:10.37,2013-02-13 19:17:00,
2013-02-13 14:22:00,46.9,42.0,29.40,South,180,5.2,6.7,83,0.00,,,0.31,WeatherDisplay:10.37,2013-02-13 19:22:00,
2013-02-13 14:27:00,46.9,42.0,29.39,SSW,202,6.8,9.2,83,0.00,,,0.31,WeatherDisplay:10.37,2013-02-13 19:27:00,
2013-02-13 14:32:00,47.3,42.7,29.40,SSE,158,5.9,6.9,84,0.00,,,0.31,WeatherDisplay:10.37,2013-02-13 19:32:00,
2013-02-13 14:37:00,47.8,42.9,29.40,WSW,248,4.7,6.9,83,0.00,,,0.31,WeatherDisplay:10.37,2013-02-13 19:37:00,
2013-02-13 14:42:00,48.2,43.3,29.40,North,0,6.3,10.4,83,0.00,,,0.31,WeatherDisplay:10.37,2013-02-13 19:42:00,
2013-02-13 14:47:00,48.7,43.8,29.39,SSW,202,3.6,6.9,83,0.00,,,0.31,WeatherDisplay:10.37,2013-02-13 19:47:00,
2013-02-13 14:52:00,49.3,44.0,29.40,SW,225,1.9,4.6,82,0.00,,,0.31,WeatherDisplay:10.37,2013-02-13 19:52:00,
2013-02-13 14:57:00,50.2,44.6,29.39,WSW,248,2.7,6.9,81,0.00,,,0.31,WeatherDisplay:10.37,2013-02-13 19:57:00,
2013-02-13 15:02:00,50.7,44.4,29.39,South,180,5.5,6.9,79,0.00,,,0.31,WeatherDisplay:10.37,2013-02-13 20:02:00,
2013-02-13 15:07:00,51.4,45.1,29.39,SSW,202,6.0,10.4,79,0.00,,,0.31,WeatherDisplay:10.37,2013-02-13 20:07:00,
2013-02-13 15:12:00,52.3,45.7,29.38,NE,45,0.0,0.0,78,0.00,,,0.31,WeatherDisplay:10.37,2013-02-13 20:12:00,
2013-02-13 15:17:00,52.9,45.5,29.38,SSE,158,1.8,6.9,76,0.00,,,0.31,WeatherDisplay:10.37,2013-02-13 20:17:00,
2013-02-13 15:22:00,53.4,45.3,29.38,South,180,4.0,5.8,74,0.00,,,0.31,WeatherDisplay:10.37,2013-02-13 20:22:00,
2013-02-13 15:27:00,54.0,44.8,29.39,SE,135,1.4,3.5,71,0.00,,,0.31,WeatherDisplay:10.37,2013-02-13 20:27:00,
2013-02-13 15:32:00,54.7,45.1,29.39,SSE,158,3.3,4.6,70,0.00,,,0.31,WeatherDisplay:10.37,2013-02-13 20:32:00,
2013-02-13 15:37:00,55.2,44.4,29.39,SSE,158,3.6,5.8,67,0.00,,,0.31,WeatherDisplay:10.37,2013-02-13 20:37:00,
2013-02-13 15:42:00,55.2,44.1,29.39,WSW,248,6.5,10.4,66,0.00,,,0.31,WeatherDisplay:10.37,2013-02-13 20:42:00,
2013-02-13 15:47:00,55.8,44.2,29.39,South,181,1.5,6.9,65,0.00,,,0.31,WeatherDisplay:10.37,2013-02-13 20:47:00,
2013-02-13 15:52:00,55.8,42.9,29.39,NNE,22,2.4,2.4,62,0.00,,,0.31,WeatherDisplay:10.37,2013-02-13 20:52:00,
2013-02-13 15:57:00,55.0,42.3,29.40,ESE,112,3.9,8.3,62,0.00,,,0.31,WeatherDisplay:10.37,2013-02-13 20:57:00,
2013-02-13 16:02:00,54.3,41.6,29.40,SW,225,1.1,5.8,62,0.00,,,0.31,WeatherDisplay:10.37,2013-02-13 21:02:00,
2013-02-13 16:07:00,54.1,41.8,29.41,SSW,202,0.0,0.0,63,0.00,,,0.31,WeatherDisplay:10.37,2013-02-13 21:07:00,
2013-02-13 16:12:00,54.1,41.0,29.41,SSW,202,6.5,6.9,61,0.00,,,0.31,WeatherDisplay:10.37,2013-02-13 21:12:00,
2013-02-13 16:17:00,53.4,40.3,29.41,NNW,338,1.7,3.5,61,0.00,,,0.31,WeatherDisplay:10.37,2013-02-13 21:17:00,
2013-02-13 16:22:00,53.2,41.0,29.41,SE,135,1.3,5.6,63,0.00,,,0.31,WeatherDisplay:10.37,2013-02-13 21:22:00,
2013-02-13 16:27:00,53.2,39.7,29.42,ESE,112,4.8,10.4,60,0.00,,,0.31,WeatherDisplay:10.37,2013-02-13 21:27:00,
2013-02-13 16:32:00,52.7,38.3,29.41,WSW,248,2.8,9.2,58,0.00,,,0.31,WeatherDisplay:10.37,2013-02-13 21:32:00,
2013-02-13 16:37:00,52.5,38.2,29.41,SE,135,2.0,10.4,58,0.00,,,0.31,WeatherDisplay:10.37,2013-02-13 21:37:00,
2013-02-13 16:42:00,52.3,38.0,29.42,NNE,22,2.2,3.5,58,0.00,,,0.31,WeatherDisplay:10.37,2013-02-13 21:42:00,
2013-02-13 16:47:00,52.3,38.0,29.42,North,0,5.1,5.8,58,0.00,,,0.31,WeatherDisplay:10.37,2013-02-13 21:47:00,
2013-02-13 16:52:00,52.2,36.5,29.42,SW,225,2.2,8.1,55,0.00,,,0.31,WeatherDisplay:10.37,2013-02-13 21:52:00,
2013-02-13 16:57:00,51.8,37.9,29.42,ENE,68,7.3,9.2,59,0.00,,,0.31,WeatherDisplay:10.37,2013-02-13 21:57:00,
2013-02-13 17:02:00,52.0,37.7,29.42,ENE,68,0.3,4.6,58,0.00,,,0.31,WeatherDisplay:10.37,2013-02-13 22:02:00,
2013-02-13 17:07:00,51.8,37.0,29.42,NE,45,1.5,6.9,57,0.00,,,0.31,WeatherDisplay:10.37,2013-02-13 22:07:00,
2013-02-13 17:12:00,51.6,36.9,29.42,NNE,22,0.0,5.8,57,0.00,,,0.31,WeatherDisplay:10.37,2013-02-13 22:12:00,
2013-02-13 17:17:00,51.3,37.8,29.43,SW,225,1.9,6.9,60,0.00,,,0.31,WeatherDisplay:10.37,2013-02-13 22:17:00,
2013-02-13 17:22:00,50.5,36.3,29.43,South,180,0.0,6.9,58,0.00,,,0.31,WeatherDisplay:10.37,2013-02-13 22:22:00,
2013-02-13 17:27:00,49.8,36.1,29.43,ENE,68,0.0,0.0,59,0.00,,,0.31,WeatherDisplay:10.37,2013-02-13 22:27:00,
2013-02-13 17:32:00,49.3,35.5,29.44,West,270,0.4,4.9,59,0.00,,,0.31,WeatherDisplay:10.37,2013-02-13 22:32:00,
2013-02-13 17:37:00,48.7,35.0,29.44,SW,225,5.8,8.1,59,0.00,,,0.31,WeatherDisplay:10.37,2013-02-13 22:37:00,
2013-02-13 17:42:00,48.4,34.7,29.44,SSE,158,8.8,19.6,59,0.00,,,0.31,WeatherDisplay:10.37,2013-02-13 22:42:00,
2013-02-13 17:47:00,47.8,34.2,29.45,NE,45,1.6,8.1,59,0.00,,,0.31,WeatherDisplay:10.37,2013-02-13 22:47:00,
2013-02-13 17:52:00,47.7,35.3,29.44,North,0,3.8,8.1,62,0.00,,,0.31,WeatherDisplay:10.37,2013-02-13 22:52:00,
2013-02-13 17:57:00,46.9,35.0,29.45,NE,45,0.0,0.0,63,0.00,,,0.31,WeatherDisplay:10.37,2013-02-13 22:57:00,
2013-02-13 18:02:00,46.2,34.3,29.46,ENE,68,3.9,5.8,63,0.00,,,0.31,WeatherDisplay:10.37,2013-02-13 23:02:00,
2013-02-13 18:07:00,46.0,34.5,29.47,South,180,0.0,0.0,64,0.00,,,0.31,WeatherDisplay:10.37,2013-02-13 23:07:00,
2013-02-13 18:12:00,46.0,34.9,29.48,NE,45,0.0,0.0,65,0.00,,,0.31,WeatherDisplay:10.37,2013-02-13 23:12:00,
2013-02-13 18:17:00,45.7,34.6,29.49,NE,45,6.6,10.4,65,0.00,,,0.31,WeatherDisplay:10.37,2013-02-13 23:17:00,
2013-02-13 18:22:00,45.3,34.6,29.49,NW,315,2.7,9.2,66,0.00,,,0.31,WeatherDisplay:10.37,2013-02-13 23:22:00,
2013-02-13 18:27:00,45.1,34.5,29.50,South,180,1.4,6.9,66,0.00,,,0.31,WeatherDisplay:10.37,2013-02-13 23:27:00,
2013-02-13 18:32:00,44.8,34.1,29.49,ESE,112,0.0,0.0,66,0.00,,,0.31,WeatherDisplay:10.37,2013-02-13 23:32:00,
2013-02-13 18:37:00,44.4,34.1,29.50,ESE,112,0.0,0.0,67,0.00,,,0.31,WeatherDisplay:10.37,2013-02-13 23:37:00,
2013-02-13 18:42:00,44.2,34.0,29.50,NE,45,0.0,0.0,67,0.00,,,0.31,WeatherDisplay:10.37,2013-02-13 23:42:00,
2013-02-13 18:47:00,43.7,33.5,29.50,NE,45,0.0,2.3,67,0.00,,,0.31,WeatherDisplay:10.37,2013-02-13 23:47:00,
2013-02-13 18:52:00,43.3,33.5,29.51,NE,45,4.7,9.2,68,0.00,,,0.31,WeatherDisplay:10.37,2013-02-13 23:52:00,
2013-02-13 18:57:00,43.0,33.1,29.52,NE,45,0.0,0.0,68,0.00,,,0.31,WeatherDisplay:10.37,2013-02-13 23:57:00,
2013-02-13 19:03:00,42.6,32.8,29.53,SE,135,2.0,5.8,68,0.00,,,0.31,WeatherDisplay:10.37,2013-02-14 00:03:00,
2013-02-13 19:08:00,42.4,33.0,29.52,SSW,202,0.0,0.0,69,0.00,,,0.31,WeatherDisplay:10.37,2013-02-14 00:08:00,
2013-02-13 19:13:00,42.1,32.6,29.53,ESE,112,0.2,2.2,69,0.00,,,0.31,WeatherDisplay:10.37,2013-02-14 00:13:00,
2013-02-13 19:18:00,41.5,32.1,29.52,ESE,112,0.0,0.0,69,0.00,,,0.31,WeatherDisplay:10.37,2013-02-14 00:18:00,
2013-02-13 19:23:00,41.2,32.1,29.53,SSW,202,0.0,0.0,70,0.00,,,0.31,WeatherDisplay:10.37,2013-02-14 00:23:00,
2013-02-13 19:28:00,40.8,31.8,29.53,ESE,112,0.0,0.0,70,0.00,,,0.31,WeatherDisplay:10.37,2013-02-14 00:28:00,
2013-02-13 19:33:00,40.6,31.6,29.53,ESE,112,0.0,0.0,70,0.00,,,0.31,WeatherDisplay:10.37,2013-02-14 00:33:00,
2013-02-13 19:38:00,40.3,31.6,29.53,West,270,0.0,0.0,71,0.00,,,0.31,WeatherDisplay:10.37,2013-02-14 00:38:00,
2013-02-13 19:43:00,39.9,31.3,29.53,West,270,0.0,0.0,71,0.00,,,0.31,WeatherDisplay:10.37,2013-02-14 00:43:00,
2013-02-13 19:48:00,39.9,31.6,29.54,South,180,0.0,0.0,72,0.00,,,0.31,WeatherDisplay:10.37,2013-02-14 00:48:00,
2013-02-13 19:53:00,39.7,31.1,29.54,SE,135,0.0,0.0,71,0.00,,,0.31,WeatherDisplay:10.37,2013-02-14 00:53:00,
2013-02-13 19:58:00,39.6,31.3,29.53,SSE,158,0.6,5.8,72,0.00,,,0.31,WeatherDisplay:10.37,2013-02-14 00:58:00,
2013-02-13 20:03:00,39.4,30.8,29.54,NE,45,0.0,0.0,71,0.00,,,0.31,WeatherDisplay:10.37,2013-02-14 01:03:00,
2013-02-13 20:08:00,39.0,30.4,29.54,East,90,1.0,3.5,71,0.00,,,0.31,WeatherDisplay:10.37,2013-02-14 01:08:00,
2013-02-13 20:13:00,38.8,30.2,29.54,ESE,112,0.0,0.0,71,0.00,,,0.31,WeatherDisplay:10.37,2013-02-14 01:13:00,
2013-02-13 20:18:00,38.8,30.2,29.55,South,180,2.7,4.9,71,0.00,,,0.31,WeatherDisplay:10.37,2013-02-14 01:18:00,
2013-02-13 20:23:00,38.5,29.9,29.54,SSE,158,4.2,6.9,71,0.00,,,0.31,WeatherDisplay:10.37,2013-02-14 01:23:00,
2013-02-13 20:28:00,38.5,29.5,29.54,SSW,202,1.0,6.9,70,0.00,,,0.31,WeatherDisplay:10.37,2013-02-14 01:28:00,
2013-02-13 20:33:00,38.5,29.5,29.54,South,180,2.6,5.8,70,0.00,,,0.31,WeatherDisplay:10.37,2013-02-14 01:33:00,
2013-02-13 20:38:00,38.5,29.5,29.55,SE,135,0.5,2.3,70,0.00,,,0.31,WeatherDisplay:10.37,2013-02-14 01:38:00,
2013-02-13 20:43:00,38.3,29.4,29.55,SSW,202,4.2,11.5,70,0.00,,,0.31,WeatherDisplay:10.37,2013-02-14 01:43:00,
2013-02-13 20:48:00,38.3,29.4,29.55,SSE,158,5.1,6.9,70,0.00,,,0.31,WeatherDisplay:10.37,2013-02-14 01:48:00,
2013-02-13 20:53:00,38.1,29.2,29.55,SSE,158,2.6,6.9,70,0.00,,,0.31,WeatherDisplay:10.37,2013-02-14 01:53:00,
2013-02-13 20:58:00,37.9,29.0,29.54,WSW,248,5.1,6.9,70,0.00,,,0.31,WeatherDisplay:10.37,2013-02-14 01:58:00,
2013-02-13 21:03:00,37.9,29.0,29.54,SE,135,4.7,6.9,70,0.00,,,0.31,WeatherDisplay:10.37,2013-02-14 02:03:00,
2013-02-13 21:08:00,37.9,29.0,29.55,SE,135,0.9,2.3,70,0.00,,,0.31,WeatherDisplay:10.37,2013-02-14 02:08:00,
2013-02-13 21:13:00,37.9,29.4,29.55,SSE,158,4.1,6.9,71,0.00,,,0.31,WeatherDisplay:10.37,2013-02-14 02:13:00,
2013-02-13 21:18:00,37.8,29.2,29.56,SW,225,0.8,0.0,71,0.00,,,0.31,WeatherDisplay:10.37,2013-02-14 02:18:00,
2013-02-13 21:23:00,37.4,28.9,29.56,SW,225,1.9,2.3,71,0.00,,,0.31,WeatherDisplay:10.37,2013-02-14 02:23:00,
2013-02-13 21:28:00,37.2,28.7,29.57,South,180,0.0,0.0,71,0.00,,,0.31,WeatherDisplay:10.37,2013-02-14 02:28:00,
2013-02-13 21:33:00,37.2,29.0,29.56,SSE,158,0.0,0.0,72,0.00,,,0.31,WeatherDisplay:10.37,2013-02-14 02:33:00,
2013-02-13 21:38:00,37.0,28.8,29.57,South,180,0.0,0.0,72,0.00,,,0.31,WeatherDisplay:10.37,2013-02-14 02:38:00,
2013-02-13 21:43:00,36.7,28.5,29.57,SSE,158,2.1,0.0,72,0.00,,,0.31,WeatherDisplay:10.37,2013-02-14 02:43:00,
2013-02-13 21:48:00,36.3,28.5,29.57,NNE,22,0.0,0.0,73,0.00,,,0.31,WeatherDisplay:10.37,2013-02-14 02:48:00,
2013-02-13 21:53:00,36.1,28.3,29.58,WSW,248,0.0,5.8,73,0.00,,,0.31,WeatherDisplay:10.37,2013-02-14 02:53:00,
2013-02-13 21:58:00,36.0,28.5,29.57,SSE,158,0.0,5.8,74,0.00,,,0.31,WeatherDisplay:10.37,2013-02-14 02:58:00,
2013-02-13 22:03:00,36.0,28.5,29.58,SW,225,1.3,4.5,74,0.00,,,0.31,WeatherDisplay:10.37,2013-02-14 03:03:00,
2013-02-13 22:08:00,36.0,28.5,29.58,South,180,0.2,1.1,74,0.00,,,0.31,WeatherDisplay:10.37,2013-02-14 03:08:00,
2013-02-13 22:13:00,35.8,28.3,29.58,SE,135,0.0,0.0,74,0.00,,,0.31,WeatherDisplay:10.37,2013-02-14 03:13:00,
2013-02-13 22:18:00,35.8,28.6,29.59,SE,135,0.0,0.0,75,0.00,,,0.31,WeatherDisplay:10.37,2013-02-14 03:18:00,
2013-02-13 22:23:00,35.8,28.6,29.59,SE,135,0.0,0.0,75,0.00,,,0.31,WeatherDisplay:10.37,2013-02-14 03:23:00,
2013-02-13 22:28:00,35.4,28.3,29.58,ESE,112,1.8,0.0,75,0.00,,,0.31,WeatherDisplay:10.37,2013-02-14 03:28:00,
2013-02-13 22:33:00,35.2,28.4,29.59,North,0,0.0,0.0,76,0.00,,,0.31,WeatherDisplay:10.37,2013-02-14 03:33:00,
2013-02-13 22:39:00,34.9,28.1,29.59,SE,135,1.5,0.0,76,0.00,,,0.31,WeatherDisplay:10.37,2013-02-14 03:39:00,
2013-02-13 22:44:00,34.9,28.1,29.59,North,0,0.0,0.0,76,0.00,,,0.31,WeatherDisplay:10.37,2013-02-14 03:44:00,
2013-02-13 22:49:00,34.9,28.1,29.59,South,180,0.7,2.3,76,0.00,,,0.31,WeatherDisplay:10.37,2013-02-14 03:49:00,
2013-02-13 22:54:00,34.9,28.1,29.60,SE,135,0.0,0.0,76,0.00,,,0.31,WeatherDisplay:10.37,2013-02-14 03:54:00,
2013-02-13 22:59:00,35.1,27.9,29.59,SSE,158,0.0,0.0,75,0.00,,,0.31,WeatherDisplay:10.37,2013-02-14 03:59:00,
2013-02-13 23:04:00,35.2,28.1,29.59,South,180,0.8,5.8,75,0.00,,,0.31,WeatherDisplay:10.37,2013-02-14 04:04:00,
2013-02-13 23:09:00,35.2,28.1,29.60,South,180,1.1,5.8,75,0.00,,,0.31,WeatherDisplay:10.37,2013-02-14 04:09:00,
2013-02-13 23:14:00,35.2,28.1,29.60,SSE,158,0.0,2.3,75,0.00,,,0.31,WeatherDisplay:10.37,2013-02-14 04:14:00,
2013-02-13 23:19:00,35.2,28.1,29.60,NE,45,0.0,0.0,75,0.00,,,0.31,WeatherDisplay:10.37,2013-02-14 04:19:00,
2013-02-13 23:24:00,35.4,28.0,29.60,WSW,248,2.0,5.8,74,0.00,,,0.31,WeatherDisplay:10.37,2013-02-14 04:24:00,
2013-02-13 23:29:00,35.4,28.0,29.60,South,180,2.6,6.9,74,0.00,,,0.31,WeatherDisplay:10.37,2013-02-14 04:29:00,
2013-02-13 23:34:00,35.4,28.0,29.60,SSE,158,0.3,4.6,74,0.00,,,0.31,WeatherDisplay:10.37,2013-02-14 04:34:00,
2013-02-13 23:39:00,35.4,28.0,29.60,ESE,112,0.1,0.0,74,0.00,,,0.31,WeatherDisplay:10.37,2013-02-14 04:39:00,
2013-02-13 23:44:00,35.4,28.0,29.60,ENE,68,0.0,0.0,74,0.00,,,0.31,WeatherDisplay:10.37,2013-02-14 04:44:00,
2013-02-13 23:49:00,35.2,27.8,29.61,SW,225,0.0,0.0,74,0.00,,,0.31,WeatherDisplay:10.37,2013-02-14 04:49:00,
2013-02-13 23:54:00,35.2,27.8,29.62,NNW,338,2.3,6.9,74,0.00,,,0.31,WeatherDisplay:10.37,2013-02-14 04:54:00,
2013-02-13 23:59:00,34.9,27.4,29.61,SSE,158,0.0,5.8,74,0.00,,,0.31,WeatherDisplay:10.37,2013-02-14 04:59:00,